Rolla, North Dakota
Current Conditions -  °F | °C
As of 8:15 AM on Thursday 18 Dec 2014 (Local Time) from K06D Reporting Station
Overcast Overcast  
Wind Chill: -6°   Ceiling: 7500
Heat Index:   Visibility: 10mi
Dew Point:   Wind: 8mph
Humidity: 100%   Direction: 190°S
Pressure: 30.1"   Gusts: NA
Location:  48.86°N, 99.62°W
Report Text: K06D 181415Z AUTO 19007KT 10SM FEW003 OVC075 M14/M14 A3010 RMK AO2
Loading
Personal Weather Stations






























Interactive Weather Map New forecast layout! Learn more

10-Day Weather Forecast

Advertisements
Track Severe Weather on mobile